createdAt,value
2024-02-26T00:02:14.180Z,7.00
2024-02-26T00:04:43.341Z,7.00
2024-02-26T00:07:11.480Z,7.00
2024-02-26T00:09:39.343Z,7.10
2024-02-26T00:12:07.647Z,7.10
2024-02-26T00:14:35.666Z,7.00
2024-02-26T00:17:03.774Z,6.90
2024-02-26T00:19:31.708Z,6.80
2024-02-26T00:22:00.916Z,6.70
2024-02-26T00:24:28.742Z,6.60
2024-02-26T00:26:56.680Z,6.80
2024-02-26T00:29:24.590Z,6.60
2024-02-26T00:31:52.413Z,6.50
2024-02-26T00:34:20.767Z,6.40
2024-02-26T00:36:48.641Z,6.40
2024-02-26T00:39:17.898Z,6.30
2024-02-26T00:41:45.802Z,6.40
2024-02-26T00:44:13.653Z,6.50
2024-02-26T00:46:41.454Z,6.60
2024-02-26T00:49:09.451Z,6.80
2024-02-26T00:51:37.417Z,6.90
2024-02-26T00:54:05.424Z,7.00
2024-02-26T00:56:34.707Z,7.00
2024-02-26T00:59:02.538Z,7.00
2024-02-26T01:01:30.882Z,6.90
2024-02-26T01:03:58.913Z,6.90
2024-02-26T01:06:26.978Z,6.90
2024-02-26T01:08:54.923Z,6.80
2024-02-26T01:11:22.798Z,6.70
2024-02-26T01:13:54.496Z,6.60
2024-02-26T01:16:22.296Z,6.60
2024-02-26T01:18:50.318Z,6.50
2024-02-26T01:21:18.288Z,6.40
2024-02-26T01:23:46.194Z,6.20
2024-02-26T01:26:14.454Z,6.10
2024-02-26T01:28:42.316Z,6.10
2024-02-26T01:31:12.757Z,6.00
2024-02-26T01:33:40.707Z,6.00
2024-02-26T01:36:08.736Z,6.00
2024-02-26T01:38:36.622Z,6.10
2024-02-26T01:41:04.636Z,6.10
2024-02-26T01:43:32.463Z,6.20
2024-02-26T01:46:00.798Z,6.20
2024-02-26T01:48:30.123Z,6.10
2024-02-26T01:50:58.481Z,6.00
2024-02-26T01:53:26.564Z,6.00
2024-02-26T01:55:54.439Z,5.90
2024-02-26T01:58:22.844Z,5.80
2024-02-26T02:00:50.923Z,5.80
2024-02-26T02:03:18.975Z,5.70
2024-02-26T02:05:48.341Z,5.80
2024-02-26T02:08:16.240Z,5.80
2024-02-26T02:10:44.520Z,5.90
2024-02-26T02:13:12.492Z,5.80
2024-02-26T02:15:40.328Z,5.80
2024-02-26T02:18:09.006Z,6.00
2024-02-26T02:20:38.339Z,5.70
2024-02-26T02:23:06.401Z,6.40
2024-02-26T02:25:34.312Z,6.50
2024-02-26T02:28:02.814Z,6.20
2024-02-26T02:30:34.272Z,5.90
2024-02-26T02:33:02.386Z,5.60
2024-02-26T02:35:30.348Z,5.50
2024-02-26T02:38:00.143Z,5.50
2024-02-26T02:40:27.969Z,5.60
2024-02-26T02:42:55.818Z,5.50
2024-02-26T02:45:23.718Z,5.50
2024-02-26T02:47:50.790Z,5.60
2024-02-26T02:50:18.708Z,5.60
2024-02-26T02:52:46.678Z,5.50
2024-02-26T02:55:16.137Z,5.50
2024-02-26T02:57:44.035Z,5.40
2024-02-26T03:00:13.180Z,5.40
2024-02-26T03:02:41.014Z,5.30
2024-02-26T03:05:09.499Z,5.30
2024-02-26T03:07:37.341Z,5.40
2024-02-26T03:10:05.504Z,5.40
2024-02-26T03:12:35.517Z,5.30
2024-02-26T03:15:04.050Z,5.30
2024-02-26T03:17:31.980Z,5.30
2024-02-26T03:19:59.886Z,5.20
2024-02-26T03:22:27.759Z,5.20
2024-02-26T03:24:55.586Z,5.20
2024-02-26T03:27:23.579Z,5.20
2024-02-26T03:29:53.829Z,5.20
2024-02-26T03:32:21.768Z,5.10
2024-02-26T03:34:49.743Z,5.10
2024-02-26T03:37:17.891Z,5.20
2024-02-26T03:39:45.717Z,5.20
2024-02-26T03:42:12.652Z,5.30
2024-02-26T03:44:40.525Z,5.40
2024-02-26T03:47:09.696Z,5.40
2024-02-26T03:49:37.659Z,5.60
2024-02-26T03:52:06.227Z,5.70
2024-02-26T03:54:34.132Z,5.60
2024-02-26T03:57:02.034Z,5.60
2024-02-26T03:59:29.863Z,5.70
2024-02-26T04:01:57.659Z,5.80
2024-02-26T04:04:26.849Z,5.70
2024-02-26T04:06:54.799Z,5.70
2024-02-26T04:09:22.733Z,5.50
2024-02-26T04:11:50.704Z,5.50
2024-02-26T04:14:18.570Z,5.30
2024-02-26T04:16:46.397Z,5.20
2024-02-26T04:19:14.401Z,5.20
2024-02-26T04:21:44.856Z,5.30
2024-02-26T04:24:12.732Z,5.40
2024-02-26T04:26:40.595Z,5.40
2024-02-26T04:29:08.528Z,5.50
2024-02-26T04:31:36.348Z,5.60
2024-02-26T04:34:04.480Z,5.40
2024-02-26T04:36:32.437Z,5.20
2024-02-26T04:39:01.695Z,5.10
2024-02-26T04:41:29.535Z,5.00
2024-02-26T04:43:57.376Z,5.00
2024-02-26T04:46:25.388Z,4.90
2024-02-26T04:48:55.872Z,4.90
2024-02-26T04:51:25.182Z,5.00
2024-02-26T04:53:54.812Z,5.10
2024-02-26T04:56:24.266Z,5.00
2024-02-26T04:58:52.083Z,5.00
2024-02-26T05:01:20.704Z,4.90
2024-02-26T05:03:48.652Z,5.00
2024-02-26T05:06:16.726Z,4.90
2024-02-26T05:08:45.223Z,4.70
2024-02-26T05:11:13.102Z,4.60
2024-02-26T05:13:43.787Z,4.60
2024-02-26T05:16:11.608Z,4.60
2024-02-26T05:18:39.593Z,4.60
2024-02-26T05:21:07.504Z,4.50
2024-02-26T05:23:35.313Z,4.50
2024-02-26T05:26:03.137Z,4.50
2024-02-26T05:28:30.993Z,4.50
2024-02-26T05:31:00.214Z,4.50
2024-02-26T05:33:28.160Z,4.50
2024-02-26T05:35:56.133Z,4.40
2024-02-26T05:38:23.950Z,4.40
2024-02-26T05:40:53.568Z,4.40
2024-02-26T05:43:21.375Z,4.40
2024-02-26T05:45:49.176Z,4.40
2024-02-26T05:48:20.223Z,4.40
2024-02-26T05:50:48.213Z,4.60
2024-02-26T05:53:16.524Z,4.50
2024-02-26T05:55:44.480Z,4.40
2024-02-26T05:58:12.324Z,4.30
2024-02-26T06:00:40.230Z,4.10
2024-02-26T06:03:08.235Z,4.00
2024-02-26T06:05:37.491Z,3.90
2024-02-26T06:08:06.217Z,3.80
2024-02-26T06:10:34.047Z,3.90
2024-02-26T06:13:01.871Z,4.00
2024-02-26T06:15:29.751Z,4.10
2024-02-26T06:17:57.920Z,4.10
2024-02-26T06:20:25.887Z,4.10
2024-02-26T06:22:55.043Z,4.20
2024-02-26T06:25:22.875Z,4.20
2024-02-26T06:27:51.172Z,4.30
2024-02-26T06:30:19.277Z,4.30
2024-02-26T06:32:47.269Z,4.40
2024-02-26T06:35:15.338Z,4.40
2024-02-26T06:37:43.302Z,4.50
2024-02-26T06:40:13.031Z,4.60
2024-02-26T06:42:41.085Z,4.70
2024-02-26T06:45:09.868Z,4.80
2024-02-26T06:47:38.028Z,4.80
2024-02-26T06:50:06.648Z,4.80
2024-02-26T06:52:34.471Z,4.80
2024-02-26T06:55:02.656Z,4.70
2024-02-26T06:57:31.880Z,4.70
2024-02-26T07:00:00.544Z,4.70
2024-02-26T07:02:28.603Z,4.50
2024-02-26T07:04:57.260Z,4.40
2024-02-26T07:07:25.145Z,4.30
2024-02-26T07:09:53.024Z,4.30
2024-02-26T07:12:22.437Z,4.40
2024-02-26T07:14:53.393Z,4.40
2024-02-26T07:17:21.324Z,4.50
2024-02-26T07:19:49.294Z,4.50
2024-02-26T07:22:17.320Z,4.60
2024-02-26T07:24:45.224Z,4.70
2024-02-26T07:27:13.210Z,4.80
2024-02-26T07:29:41.044Z,5.00
2024-02-26T07:32:11.523Z,5.00
2024-02-26T07:34:42.657Z,5.10
2024-02-26T07:37:10.712Z,5.10
2024-02-26T07:39:38.944Z,5.30
2024-02-26T07:42:07.537Z,5.30
2024-02-26T07:44:35.827Z,5.40
2024-02-26T07:47:04.044Z,5.50
2024-02-26T07:49:35.383Z,5.60
2024-02-26T07:52:04.169Z,5.60
2024-02-26T07:54:32.055Z,5.60
2024-02-26T07:57:00.027Z,5.70
2024-02-26T07:59:27.876Z,5.80
2024-02-26T08:01:58.785Z,6.00
2024-02-26T08:04:27.830Z,6.20
2024-02-26T08:06:57.161Z,6.50
2024-02-26T08:09:25.191Z,6.60
2024-02-26T08:11:53.154Z,6.70
2024-02-26T08:14:21.036Z,6.80
2024-02-26T08:16:49.995Z,7.00
2024-02-26T08:19:18.842Z,7.10
2024-02-26T08:21:46.845Z,7.10
2024-02-26T08:24:16.375Z,7.00
2024-02-26T08:26:44.252Z,7.00
2024-02-26T08:29:12.096Z,7.10
2024-02-26T08:31:39.904Z,7.30
2024-02-26T08:34:07.960Z,7.30
2024-02-26T08:36:36.476Z,7.30
2024-02-26T08:39:05.104Z,7.00
2024-02-26T08:41:34.277Z,6.70
2024-02-26T08:44:02.089Z,6.60
2024-02-26T08:46:29.905Z,6.80
2024-02-26T08:48:57.816Z,6.80
2024-02-26T08:51:25.820Z,6.90
2024-02-26T08:53:55.027Z,6.90
2024-02-26T08:56:23.351Z,6.60
2024-02-26T08:58:54.682Z,6.50
2024-02-26T09:01:24.442Z,6.30
2024-02-26T09:03:52.441Z,6.20
2024-02-26T09:06:20.415Z,6.10
2024-02-26T09:08:48.385Z,6.20
2024-02-26T09:11:16.478Z,6.20
2024-02-26T09:13:44.876Z,6.10
2024-02-26T09:16:14.601Z,6.20
2024-02-26T09:18:42.579Z,6.50
2024-02-26T09:21:10.477Z,6.80
2024-02-26T09:23:38.301Z,7.00
2024-02-26T09:26:07.607Z,7.30
2024-02-26T09:28:38.371Z,7.50
2024-02-26T09:31:07.352Z,7.50
2024-02-26T09:33:36.997Z,7.20
2024-02-26T09:36:07.259Z,6.80
2024-02-26T09:38:45.390Z,6.80
2024-02-26T09:41:20.392Z,6.80
2024-02-26T09:43:50.653Z,6.90
2024-02-26T09:46:21.131Z,7.30
2024-02-26T09:48:50.455Z,7.80
2024-02-26T09:51:19.322Z,8.00
2024-02-26T09:53:51.328Z,8.20
2024-02-26T09:56:19.591Z,8.50
2024-02-26T09:58:50.255Z,8.70
2024-02-26T10:01:20.257Z,8.50
2024-02-26T10:03:54.344Z,8.50
2024-02-26T10:06:23.047Z,8.60
2024-02-26T10:08:51.427Z,8.40
2024-02-26T10:11:20.025Z,8.30
2024-02-26T10:13:47.881Z,8.40
2024-02-26T10:16:16.528Z,8.50
2024-02-26T10:18:57.598Z,8.50
2024-02-26T10:21:29.207Z,8.60
2024-02-26T10:23:57.063Z,8.60
2024-02-26T10:26:24.906Z,8.60
2024-02-26T10:28:55.334Z,8.70
2024-02-26T10:31:23.937Z,8.60
2024-02-26T10:33:52.061Z,8.80
2024-02-26T10:36:20.177Z,8.90
2024-02-26T10:38:51.319Z,8.90
2024-02-26T10:41:19.944Z,9.10
2024-02-26T10:43:49.743Z,9.20
2024-02-26T10:46:17.917Z,9.40
2024-02-26T10:48:52.597Z,9.60
2024-02-26T10:51:27.125Z,9.50
2024-02-26T10:54:01.852Z,9.50
2024-02-26T10:56:31.358Z,9.50
2024-02-26T10:59:00.046Z,9.60
2024-02-26T11:01:30.550Z,9.70
2024-02-26T11:03:59.409Z,9.80
2024-02-26T11:06:28.599Z,9.90
2024-02-26T11:08:58.420Z,10.00
2024-02-26T11:11:28.851Z,10.10
2024-02-26T11:13:57.923Z,10.10
2024-02-26T11:16:27.884Z,10.00
2024-02-26T11:18:57.107Z,10.20
2024-02-26T11:21:31.065Z,10.40
2024-02-26T11:24:00.515Z,10.40
2024-02-26T11:26:29.688Z,10.40
2024-02-26T11:28:58.197Z,10.50
2024-02-26T11:31:28.602Z,10.70
2024-02-26T11:33:58.324Z,10.60
2024-02-26T11:36:26.695Z,10.80
2024-02-26T11:38:54.828Z,10.70
2024-02-26T11:41:24.706Z,10.90
2024-02-26T11:43:53.817Z,11.00
2024-02-26T11:46:28.206Z,10.90
2024-02-26T11:48:58.502Z,10.90
2024-02-26T11:51:28.783Z,11.00
2024-02-26T11:53:58.523Z,10.80
2024-02-26T11:56:32.413Z,10.90
2024-02-26T11:59:02.917Z,11.10
2024-02-26T12:01:41.601Z,11.10
2024-02-26T12:04:15.659Z,11.00
2024-02-26T12:06:46.946Z,10.90
2024-02-26T12:09:15.608Z,10.80
2024-02-26T12:11:44.987Z,11.00
2024-02-26T12:14:12.923Z,11.00
2024-02-26T12:16:43.544Z,11.10
2024-02-26T12:19:12.006Z,10.90
2024-02-26T12:21:40.288Z,11.00
2024-02-26T12:24:16.612Z,10.90
2024-02-26T12:26:45.955Z,11.00
2024-02-26T12:29:14.644Z,11.00
2024-02-26T12:31:42.851Z,11.10
2024-02-26T12:34:11.676Z,11.20
2024-02-26T12:36:41.335Z,11.20
2024-02-26T12:39:10.499Z,11.30
2024-02-26T12:41:40.607Z,11.20
2024-02-26T12:44:10.478Z,11.20
2024-02-26T12:46:38.281Z,11.10
2024-02-26T12:49:07.338Z,11.10
2024-02-26T12:51:35.843Z,11.00
2024-02-26T12:54:04.219Z,11.00
2024-02-26T12:56:33.021Z,11.00
2024-02-26T12:59:01.932Z,11.10
2024-02-26T13:01:31.603Z,11.00
2024-02-26T13:04:02.038Z,10.90
2024-02-26T13:06:30.081Z,11.00
2024-02-26T13:09:00.721Z,11.00
2024-02-26T13:11:30.011Z,11.10
2024-02-26T13:13:57.899Z,11.20
2024-02-26T13:16:26.832Z,11.20
2024-02-26T13:18:56.138Z,11.30
2024-02-26T13:21:25.705Z,11.50
2024-02-26T13:23:55.796Z,11.60
2024-02-26T13:26:26.100Z,11.50
2024-02-26T13:29:04.444Z,11.50
2024-02-26T13:31:32.326Z,11.50
2024-02-26T13:34:01.720Z,11.50
2024-02-26T13:36:29.905Z,11.50
2024-02-26T13:38:58.074Z,11.50
2024-02-26T13:41:25.948Z,11.40
2024-02-26T13:43:53.865Z,11.20
2024-02-26T13:46:21.770Z,11.20
2024-02-26T13:48:49.733Z,11.50
2024-02-26T13:51:19.149Z,11.50
2024-02-26T13:53:47.357Z,11.60
2024-02-26T13:56:15.438Z,11.60
2024-02-26T13:58:43.353Z,11.60
2024-02-26T14:01:11.243Z,11.50
2024-02-26T14:03:39.190Z,11.30
2024-02-26T14:06:07.341Z,11.40
2024-02-26T14:08:36.570Z,11.40
2024-02-26T14:11:04.631Z,11.50
2024-02-26T14:13:33.702Z,11.50
2024-02-26T14:16:02.793Z,11.20
2024-02-26T14:18:30.780Z,11.20
2024-02-26T14:20:58.686Z,11.20
2024-02-26T14:23:26.511Z,11.10
2024-02-26T14:25:55.644Z,11.10
2024-02-26T14:28:29.379Z,11.20
2024-02-26T14:31:05.321Z,11.10
2024-02-26T14:33:33.435Z,10.90
2024-02-26T14:36:01.688Z,11.00
2024-02-26T14:38:29.571Z,11.00
2024-02-26T14:40:58.724Z,11.00
2024-02-26T14:43:26.513Z,11.00
2024-02-26T14:45:54.296Z,11.00
2024-02-26T14:48:22.222Z,11.00
2024-02-26T14:50:50.199Z,10.90
2024-02-26T14:53:18.353Z,11.00
2024-02-26T14:55:46.544Z,11.00
2024-02-26T14:58:15.729Z,11.00
2024-02-26T15:00:43.629Z,11.00
2024-02-26T15:03:11.678Z,10.90
2024-02-26T15:05:39.628Z,10.90
2024-02-26T15:08:10.151Z,10.80
2024-02-26T15:10:38.162Z,10.70
2024-02-26T15:13:08.059Z,10.70
2024-02-26T15:15:38.676Z,10.70
2024-02-26T15:18:06.827Z,10.60
2024-02-26T15:20:34.695Z,10.60
2024-02-26T15:23:02.477Z,10.50
2024-02-26T15:25:30.324Z,10.50
2024-02-26T15:27:58.159Z,10.40
2024-02-26T15:30:26.081Z,10.40
2024-02-26T15:32:55.475Z,10.30
2024-02-26T15:35:23.371Z,10.40
2024-02-26T15:37:51.180Z,10.30
2024-02-26T15:40:19.355Z,10.30
2024-02-26T15:42:48.298Z,10.20
2024-02-26T15:45:17.433Z,10.20
2024-02-26T15:47:45.700Z,10.20
2024-02-26T15:50:15.695Z,10.20
2024-02-26T15:52:43.587Z,10.10
2024-02-26T15:55:17.020Z,10.10
2024-02-26T15:57:46.453Z,10.20
2024-02-26T16:00:15.617Z,10.10
2024-02-26T16:02:43.478Z,10.10
2024-02-26T16:05:12.373Z,10.10
2024-02-26T16:07:45.708Z,10.00
2024-02-26T16:10:13.740Z,10.00
2024-02-26T16:12:43.992Z,10.00
2024-02-26T16:15:12.742Z,9.90
2024-02-26T16:17:48.251Z,9.90
2024-02-26T16:20:19.292Z,9.90
2024-02-26T16:22:49.123Z,9.80
2024-02-26T16:25:17.192Z,9.80
2024-02-26T16:27:45.214Z,9.80
2024-02-26T16:30:14.843Z,9.70
2024-02-26T16:32:43.218Z,9.70
2024-02-26T16:35:12.835Z,9.60
2024-02-26T16:37:41.094Z,9.60
2024-02-26T16:40:11.039Z,9.60
2024-02-26T16:42:39.628Z,9.60
2024-02-26T16:45:08.189Z,9.60
2024-02-26T16:47:37.267Z,9.60
2024-02-26T16:50:07.238Z,9.60
2024-02-26T16:52:35.202Z,9.70
2024-02-26T16:55:05.959Z,9.60
2024-02-26T16:57:35.648Z,9.60
2024-02-26T17:00:04.522Z,9.60
2024-02-26T17:02:32.384Z,9.50
2024-02-26T17:05:00.225Z,9.60
2024-02-26T17:07:28.054Z,9.60
2024-02-26T17:09:56.198Z,9.70
2024-02-26T17:12:24.125Z,9.70
2024-02-26T17:14:53.542Z,9.70
2024-02-26T17:17:21.391Z,9.60
2024-02-26T17:19:49.223Z,9.50
2024-02-26T17:22:18.447Z,9.40
2024-02-26T17:24:48.197Z,9.40
2024-02-26T17:27:16.157Z,9.30
2024-02-26T17:29:44.035Z,9.20
2024-02-26T17:32:15.925Z,9.20
2024-02-26T17:34:44.324Z,9.10
2024-02-26T17:37:12.413Z,9.10
2024-02-26T17:39:40.479Z,9.10
2024-02-26T17:42:09.842Z,9.10
2024-02-26T17:44:40.354Z,9.00
2024-02-26T17:47:08.949Z,9.00
2024-02-26T17:49:40.835Z,8.90
2024-02-26T17:52:08.764Z,8.90
2024-02-26T17:54:36.663Z,8.80
2024-02-26T17:57:05.061Z,8.80
2024-02-26T17:59:32.861Z,8.70
2024-02-26T18:02:00.723Z,8.70
2024-02-26T18:04:28.618Z,8.60
2024-02-26T18:06:57.773Z,8.60
2024-02-26T18:09:25.640Z,8.60
2024-02-26T18:11:56.287Z,8.50
2024-02-26T18:14:24.339Z,8.60
2024-02-26T18:16:52.156Z,8.60
2024-02-26T18:19:20.061Z,8.50
2024-02-26T18:21:47.911Z,8.50
2024-02-26T18:24:17.217Z,8.50
2024-02-26T18:26:45.423Z,8.50
2024-02-26T18:29:13.503Z,8.40
2024-02-26T18:31:41.301Z,8.40
2024-02-26T18:34:09.201Z,8.40
2024-02-26T18:36:37.530Z,8.50
2024-02-26T18:39:05.534Z,8.50
2024-02-26T18:41:34.735Z,8.60
2024-02-26T18:44:02.634Z,8.60
2024-02-26T18:46:30.454Z,8.60
2024-02-26T18:48:58.410Z,8.60
2024-02-26T18:51:26.469Z,8.70
2024-02-26T18:53:54.359Z,8.50
2024-02-26T18:56:23.958Z,8.40
2024-02-26T18:58:53.301Z,8.40
2024-02-26T19:01:21.201Z,8.40
2024-02-26T19:03:49.181Z,8.40
2024-02-26T19:06:17.068Z,8.50
2024-02-26T19:08:44.926Z,8.40
2024-02-26T19:11:13.087Z,8.30
2024-02-26T19:13:40.917Z,8.40
2024-02-26T19:16:10.225Z,8.50
2024-02-26T19:18:38.184Z,8.50
2024-02-26T19:21:06.830Z,8.50
2024-02-26T19:23:36.514Z,8.40
2024-02-26T19:26:05.512Z,8.40
2024-02-26T19:28:33.429Z,8.40
2024-02-26T19:31:01.210Z,8.20
2024-02-26T19:33:30.828Z,8.20
2024-02-26T19:35:58.838Z,8.30
2024-02-26T19:38:26.715Z,8.20
2024-02-26T19:40:54.523Z,8.30
2024-02-26T19:43:22.349Z,8.30
2024-02-26T19:45:50.485Z,8.20
2024-02-26T19:48:18.424Z,8.10
2024-02-26T19:50:47.677Z,8.10
2024-02-26T19:53:15.629Z,8.00
2024-02-26T19:55:45.150Z,8.00
2024-02-26T19:58:13.092Z,7.90
2024-02-26T20:00:41.094Z,7.90
2024-02-26T20:03:09.153Z,8.00
2024-02-26T20:05:37.387Z,8.10
2024-02-26T20:08:07.475Z,8.10
2024-02-26T20:10:35.266Z,8.00
2024-02-26T20:13:03.114Z,7.90
2024-02-26T20:15:31.040Z,7.70
2024-02-26T20:17:58.947Z,7.60
2024-02-26T20:20:30.156Z,7.50
2024-02-26T20:22:57.969Z,7.70
2024-02-26T20:25:27.087Z,7.60
2024-02-26T20:27:54.937Z,7.50
2024-02-26T20:30:26.814Z,7.50
2024-02-26T20:32:54.805Z,7.50
2024-02-26T20:35:23.143Z,7.50
2024-02-26T20:37:50.982Z,7.60
2024-02-26T20:40:20.622Z,7.60
2024-02-26T20:42:50.017Z,7.50
2024-02-26T20:45:17.894Z,7.40
2024-02-26T20:47:45.983Z,7.50
2024-02-26T20:50:13.860Z,7.50
2024-02-26T20:52:41.648Z,7.40
2024-02-26T20:55:10.478Z,7.50
2024-02-26T20:57:38.297Z,7.50
2024-02-26T21:00:09.970Z,7.50
2024-02-26T21:02:40.154Z,7.50
2024-02-26T21:05:10.451Z,7.40
2024-02-26T21:07:38.955Z,7.50
2024-02-26T21:10:08.770Z,7.40
2024-02-26T21:12:36.839Z,7.40
2024-02-26T21:15:05.347Z,7.40
2024-02-26T21:17:34.573Z,7.40
2024-02-26T21:20:02.607Z,7.30
2024-02-26T21:22:30.562Z,7.30
2024-02-26T21:24:58.339Z,7.30
2024-02-26T21:27:26.166Z,7.30
2024-02-26T21:29:54.179Z,7.30
2024-02-26T21:32:22.004Z,7.40
2024-02-26T21:34:51.169Z,7.30
2024-02-26T21:37:19.237Z,7.20
2024-02-26T21:39:47.123Z,7.20
2024-02-26T21:42:15.147Z,7.10
2024-02-26T21:44:42.941Z,7.20
2024-02-26T21:47:11.145Z,7.20
2024-02-26T21:49:39.202Z,7.10
2024-02-26T21:52:09.002Z,7.00
2024-02-26T21:54:37.607Z,6.90
2024-02-26T21:57:06.918Z,6.90
2024-02-26T21:59:34.808Z,6.90
2024-02-26T22:02:02.610Z,6.80
2024-02-26T22:04:30.514Z,6.90
2024-02-26T22:06:58.504Z,6.80
2024-02-26T22:09:28.322Z,6.80
2024-02-26T22:11:56.231Z,6.90
2024-02-26T22:14:25.720Z,7.00
2024-02-26T22:16:54.412Z,6.90
2024-02-26T22:19:22.276Z,6.80
2024-02-26T22:21:51.844Z,6.80
2024-02-26T22:24:19.990Z,6.80
2024-02-26T22:26:49.139Z,6.80
2024-02-26T22:29:16.924Z,6.90
2024-02-26T22:31:44.713Z,6.80
2024-02-26T22:34:12.808Z,6.80
2024-02-26T22:36:40.779Z,6.80
2024-02-26T22:39:09.130Z,6.80
2024-02-26T22:41:41.667Z,6.70
2024-02-26T22:44:10.872Z,6.70
2024-02-26T22:46:39.054Z,6.70
2024-02-26T22:49:08.606Z,6.70
2024-02-26T22:51:36.692Z,6.70
2024-02-26T22:54:04.867Z,6.60
2024-02-26T22:56:32.703Z,6.60
2024-02-26T22:59:04.912Z,6.50
2024-02-26T23:01:34.409Z,6.50
2024-02-26T23:04:02.405Z,6.60
2024-02-26T23:06:30.316Z,6.50
2024-02-26T23:08:58.154Z,6.50
2024-02-26T23:11:26.047Z,6.50
2024-02-26T23:13:53.891Z,6.50
2024-02-26T23:16:21.683Z,6.50
2024-02-26T23:18:50.838Z,6.50
2024-02-26T23:21:19.043Z,6.40
2024-02-26T23:23:47.352Z,6.40
2024-02-26T23:26:15.156Z,6.40
2024-02-26T23:28:43.288Z,6.30
2024-02-26T23:31:11.194Z,6.30
2024-02-26T23:33:39.084Z,6.30
2024-02-26T23:36:09.220Z,6.30
2024-02-26T23:38:37.081Z,6.30
2024-02-26T23:41:05.094Z,6.30
2024-02-26T23:43:32.953Z,6.30
2024-02-26T23:46:00.779Z,6.30
2024-02-26T23:48:28.660Z,6.20
2024-02-26T23:50:56.621Z,6.20
2024-02-26T23:53:25.799Z,6.20
2024-02-26T23:55:53.626Z,6.10
2024-02-26T23:58:24.055Z,6.10
